• Join FlightAware (Why Join?)
  • Login
  • US Flag 
01:20AM EDT


 

Airport Tracker/Info


-or-


 

Live Flight TrackerFlight Track Log ✈ RAX44 ✈ 27-Jun-2013 ✈ KSBN - KGKY

Flight Track Log - Related Links

Times and Time Zones

All times are in EDT time to prevent confusion due to time zone crossing. See the RAX44 flight status page for this flight to view local times or setup timezone preferences in your user account.

Time Position Orientation Groundspeed Altitude Reporting Facility
EDT Latitude Longitude Course Direction KTS MPH feet Rate Location/Type
12:42PM 41.6378 -86.3922 196° South 226 260 5,600  Level Chicago Center
12:43PM 41.5689 -86.3856 176° South 255 293 7,900 2,400 Climbing Chicago Center
12:44PM 41.4933 -86.3744 174° South 272 313 10,600 2,820 Climbing Chicago Center
12:45PM 41.3992 -86.3628 175° South 284 327 13,800 2,700 Climbing Chicago Center
12:46PM 41.3331 -86.4181 212° Southwest 286 329 16,200 2,460 Climbing Chicago Center
12:47PM 41.2836 -86.5017 232° Southwest 288 331 18,900 2,340 Climbing Chicago Center
12:48PM 41.2314 -86.5811 229° Southwest 287 330 21,100 1,860 Climbing Chicago Center
12:49PM 41.1731 -86.6608 226° Southwest 297 342 22,800 1,500 Climbing Chicago Center
12:50PM 41.1067 -86.7481 225° Southwest 325 374 24,300 1,500 Climbing Chicago Center
12:51PM 41.0306 -86.8603 228° Southwest 341 392 26,000 1,320 Climbing Chicago Center
12:52PM 40.9661 -86.9589 229° Southwest 353 406 27,100 960 Climbing Chicago Center
12:53PM 40.8989 -87.0600 229° Southwest 365 420 28,000 840 Climbing Chicago Center
12:54PM 40.8292 -87.1658 229° Southwest 379 436 28,900 720 Climbing Chicago Center
12:55PM 40.7550 -87.2714 227° Southwest 391 450 29,600 720 Climbing Chicago Center
12:56PM 40.6783 -87.3789 227° Southwest 402 463 30,400 840 Climbing Chicago Center
12:57PM 40.5878 -87.5067 227° Southwest 399 459 31,400 780 Climbing Chicago Center
12:58PM 40.5242 -87.6247 235° Southwest 394 453 32,100 660 Climbing Chicago Center
12:59PM 40.4658 -87.7456 238° Southwest 393 452 32,800 660 Climbing Chicago Center
01:00PM 40.4081 -87.8697 239° Southwest 396 456 33,500 720 Climbing Chicago Center
01:01PM 40.3372 -87.9811 230° Southwest 399 459 34,400 900 Climbing Chicago Center
01:02PM 40.2422 -88.1081 226° Southwest 407 468 35,400 720 Climbing Chicago Center
01:03PM 40.1708 -88.2017 225° Southwest 412 474 35,900 480 Climbing Chicago Center
01:04PM 40.0886 -88.3081 225° Southwest 414 476 36,500 540 Climbing Chicago Center
01:05PM 40.0056 -88.4178 225° Southwest 417 480 37,000 360 Climbing Kansas City Center
01:06PM 39.9247 -88.5286 226° Southwest 417 480 37,300 120 Climbing Kansas City Center
01:07PM 39.8425 -88.6422 227° Southwest 425 489 37,300 300 Level Kansas City Center
01:09PM 39.7433 -88.7800 227° Southwest 431 496 38,000 300 Climbing Kansas City Center
01:10PM 39.6625 -88.8944 227° Southwest 430 495 38,000  Level Kansas City Center
01:11PM 39.5789 -89.0117 227° Southwest 437 503 38,000  Level Kansas City Center
01:12PM 39.4958 -89.1308 228° Southwest 442 509 38,000  Level Kansas City Center
01:13PM 39.4164 -89.2458 228° Southwest 444 511 38,000  Level Kansas City Center
01:14PM 39.3136 -89.3856 226° Southwest 446 513 38,100 420 Climbing Kansas City Center
01:15PM 39.2311 -89.5000 227° Southwest 440 506 38,900 600 Climbing Kansas City Center
01:16PM 39.1422 -89.6203 226° Southwest 429 494 39,400 420 Climbing Kansas City Center
01:17PM 39.0569 -89.7267 224° Southwest 429 494 39,800 240 Climbing Kansas City Center
01:18PM 38.9639 -89.8422 224° Southwest 433 498 40,000 60 Climbing Kansas City Center
01:19PM 38.8903 -89.9331 224° Southwest 436 502 40,000  Level Kansas City Center
01:20PM 38.7872 -90.0636 225° Southwest 440 506 40,100  Climbing Kansas City Center
01:21PM 38.6958 -90.1750 224° Southwest 448 516 40,100  Level Kansas City Center
01:22PM 38.5967 -90.2917 223° Southwest 455 524 40,100 -60 Level Kansas City Center
01:23PM 38.5119 -90.3992 225° Southwest 456 525 40,000  Descending Kansas City Center
01:24PM 38.4217 -90.5092 224° Southwest 449 517 40,100  Climbing Kansas City Center
01:25PM 38.3214 -90.6294 223° Southwest 452 520 40,100 -60 Level Kansas City Center
01:26PM 38.2308 -90.7406 224° Southwest 452 520 40,000 -60 Descending Kansas City Center
01:27PM 38.1406 -90.8517 224° Southwest 452 520 40,000  Level Kansas City Center
01:28PM 38.0319 -90.9878 225° Southwest 456 525 40,100  Climbing Kansas City Center
01:29PM 37.9481 -91.0950 225° Southwest 457 526 40,000  Descending Kansas City Center
01:30PM 37.8561 -91.2108 225° Southwest 462 532 40,100  Climbing Kansas City Center
01:31PM 37.7653 -91.3281 226° Southwest 464 534 40,000  Descending Kansas City Center
01:32PM 37.6564 -91.4706 226° Southwest 466 536 40,100  Climbing Kansas City Center
01:33PM 37.5653 -91.5911 226° Southwest 469 540 40,100  Level Kansas City Center
01:34PM 37.4725 -91.7097 225° Southwest 471 542 40,100 -60 Level Kansas City Center
01:35PM 37.3772 -91.8267 224° Southwest 473 544 40,000 -60 Descending Kansas City Center
01:36PM 37.2811 -91.9439 224° Southwest 476 548 40,000  Level Kansas City Center
01:37PM 37.1875 -92.0606 225° Southwest 474 545 40,100  Climbing Kansas City Center
01:39PM 37.0897 -92.1792 224° Southwest 480 552 40,000  Descending Kansas City Center
01:40PM 36.9950 -92.2953 224° Southwest 478 550 40,100  Climbing Kansas City Center
01:41PM 36.8808 -92.4350 224° Southwest 475 547 40,100  Level Kansas City Center
01:42PM 36.7836 -92.5458 222° Southwest 473 544 40,100 -60 Level Kansas City Center
01:43PM 36.6872 -92.6581 223° Southwest 472 543 40,000  Descending Kansas City Center
01:44PM 36.6047 -92.7531 223° Southwest 478 550 40,100  Climbing Memphis Center
01:45PM 36.5086 -92.8689 224° Southwest 478 550 40,000 -60 Descending Memphis Center
01:46PM 36.4167 -92.9822 225° Southwest 478 550 40,000  Level Memphis Center
01:47PM 36.3247 -93.0925 224° Southwest 478 550 40,000  Level Memphis Center
01:48PM 36.2367 -93.2028 225° Southwest 467 537 40,000  Level Memphis Center
01:49PM 36.1464 -93.3181 226° Southwest 467 537 40,100  Climbing Memphis Center
01:50PM 36.0583 -93.4328 227° Southwest 467 537 40,000 -60 Descending Memphis Center
01:51PM 35.9700 -93.5450 226° Southwest 467 537 40,000  Level Memphis Center
01:52PM 35.8836 -93.6594 227° Southwest 462 532 40,000  Level Memphis Center
01:53PM 35.7969 -93.7764 228° Southwest 462 532 40,000  Level Memphis Center
01:54PM 35.7083 -93.8903 226° Southwest 467 537 40,100  Climbing Memphis Center
01:55PM 35.6194 -94.0014 225° Southwest 462 532 40,000 -60 Descending Memphis Center
01:56PM 35.5308 -94.1097 225° Southwest 462 532 40,000  Level Memphis Center
01:57PM 35.4400 -94.2203 225° Southwest 457 526 40,000  Level Memphis Center
01:58PM 35.3489 -94.3308 225° Southwest 463 533 40,000  Level Memphis Center
01:59PM 35.1936 -94.5275 226° Southwest 446 513 40,100  Climbing Fort Worth Center
02:00PM 35.1044 -94.6397 226° Southwest 466 536 40,000 -60 Descending Fort Worth Center
02:01PM 35.0150 -94.7492 225° Southwest 460 529 40,000  Level Fort Worth Center
02:02PM 34.9256 -94.8583 225° Southwest 460 529 40,000  Level Fort Worth Center
02:03PM 34.8400 -94.9672 226° Southwest 467 537 40,000 -660 Level Fort Worth Center
02:04PM 34.7506 -95.0758 225° Southwest 467 537 38,700 -1,200 Descending Fort Worth Center
02:05PM 34.6564 -95.1894 225° Southwest 467 537 37,600 -1,020 Descending Fort Worth Center
02:06PM 34.5667 -95.2978 225° Southwest 467 537 36,700 -900 Descending Fort Worth Center
02:07PM 34.4725 -95.4108 225° Southwest 473 544 35,900 -840 Descending Fort Worth Center
02:08PM 34.3761 -95.5239 224° Southwest 473 544 35,100 -900 Descending Fort Worth Center
02:09PM 34.2797 -95.6392 225° Southwest 479 551 34,200 -1,020 Descending Fort Worth Center
02:10PM 34.1853 -95.7514 225° Southwest 479 551 33,100 -1,200 Descending Fort Worth Center
02:11PM 34.0908 -95.8661 225° Southwest 479 551 31,800 -1,140 Descending Fort Worth Center
02:12PM 34.0064 -95.9703 226° Southwest 467 537 30,900 -1,200 Descending Fort Worth Center
02:13PM 33.9117 -96.0769 223° Southwest 467 537 29,500 -1,620 Descending Fort Worth Center
02:14PM 33.8231 -96.1858 226° Southwest 467 537 27,700 -1,860 Descending Fort Worth Center
02:15PM 33.7322 -96.2919 224° Southwest 462 532 25,800 -3,180 Descending Fort Worth Center
02:16PM 33.6350 -96.4056 224° Southwest 452 520 21,400 -4,320 Descending Fort Worth Center
02:17PM 33.5522 -96.4911 221° Southwest 433 498 17,200 -4,200 Descending Fort Worth Center
02:18PM 33.4797 -96.5667 221° Southwest 379 436 13,100 -3,060 Descending Fort Worth Center
02:19PM 33.4197 -96.6419 226° Southwest 324 373 11,100 -1,740 Descending Fort Worth Center
02:20PM 33.3783 -96.7194 237° Southwest 300 345 9,700 -1,320 Descending Fort Worth Center
02:21PM 33.3725 -96.8114 266° West 276 318 8,500 -1,020 Descending Fort Worth Center
02:22PM 33.3750 -96.8936 272° West 260 299 7,700 -900 Descending Fort Worth Center
02:23PM 33.3753 -96.9831 270° West 255 293 6,800 -840 Descending Fort Worth Center
02:24PM 33.3714 -97.0628 267° West 272 313 6,100 -780 Descending Fort Worth Center
02:25PM 33.3667 -97.1500 266° West 254 292 5,400 -780 Descending Dallas / Fort Worth TRACON
02:26PM 33.3667 -97.2333 270° West 253 291 4,700 -720 Descending Dallas / Fort Worth TRACON
02:27PM 33.3167 -97.2667 209° Southwest 240 276 4,100 -480 Descending Dallas / Fort Worth TRACON
02:28PM 33.2500 -97.3000 203° Southwest 220 253 3,900 -120 Descending Dallas / Fort Worth TRACON
02:29PM 33.2000 -97.2833 164° South 215 247 3,900  Level Dallas / Fort Worth TRACON
02:30PM 33.1333 -97.2833 180° South 228 262 3,900  Level Dallas / Fort Worth TRACON
02:31PM 33.0667 -97.2667 168° South 239 275 3,900  Level Dallas / Fort Worth TRACON
02:32PM 33.0000 -97.2667 180° South 229 264 3,900 -180 Level Dallas / Fort Worth TRACON
02:33PM 32.9333 -97.2500 168° South 217 250 3,600 -600 Descending Dallas / Fort Worth TRACON
02:34PM 32.8833 -97.2167 151° Southeast 227 261 2,800 -660 Descending Dallas / Fort Worth TRACON
02:35PM 32.8333 -97.1833 151° Southeast 210 242 2,300 -360 Descending Dallas / Fort Worth TRACON
02:36PM 32.7833 -97.1500 151° Southeast 202 232 2,100 -300 Descending Dallas / Fort Worth TRACON
02:37PM 32.7333 -97.1167 151° Southeast 180 207 1,800 -540 Descending Dallas / Fort Worth TRACON
02:38PM 32.7000 -97.1000 157° South 140 161 1,100 -720 Descending Dallas / Fort Worth TRACON